sensor_id;sensor_type;location;lat;lon;timestamp;temperature;humidity
11047;DHT22;5576;50.008;10.596;2023-04-03T00:01:08;3.60;99.90
11047;DHT22;5576;50.008;10.596;2023-04-03T00:03:34;3.70;99.90
11047;DHT22;5576;50.008;10.596;2023-04-03T00:06:00;3.60;99.90
11047;DHT22;5576;50.008;10.596;2023-04-03T00:08:26;3.60;99.90
11047;DHT22;5576;50.008;10.596;2023-04-03T00:10:51;2.30;99.90
11047;DHT22;5576;50.008;10.596;2023-04-03T00:13:18;6.10;99.90
11047;DHT22;5576;50.008;10.596;2023-04-03T00:15:44;1.30;99.90
11047;DHT22;5576;50.008;10.596;2023-04-03T00:18:10;3.70;99.90
11047;DHT22;5576;50.008;10.596;2023-04-03T00:20:36;3.70;99.90
11047;DHT22;5576;50.008;10.596;2023-04-03T00:23:02;3.60;99.90
11047;DHT22;5576;50.008;10.596;2023-04-03T00:25:28;5.30;99.90
11047;DHT22;5576;50.008;10.596;2023-04-03T00:27:54;3.90;99.90
11047;DHT22;5576;50.008;10.596;2023-04-03T00:30:20;3.70;99.90
11047;DHT22;5576;50.008;10.596;2023-04-03T00:32:48;3.60;99.90
11047;DHT22;5576;50.008;10.596;2023-04-03T00:35:14;3.50;99.90
11047;DHT22;5576;50.008;10.596;2023-04-03T00:37:42;3.10;99.90
11047;DHT22;5576;50.008;10.596;2023-04-03T00:40:09;3.40;99.90
11047;DHT22;5576;50.008;10.596;2023-04-03T00:42:36;3.40;99.90
11047;DHT22;5576;50.008;10.596;2023-04-03T00:47:31;4.00;99.90
11047;DHT22;5576;50.008;10.596;2023-04-03T00:49:58;0.50;99.90
11047;DHT22;5576;50.008;10.596;2023-04-03T00:52:28;4.00;99.90
11047;DHT22;5576;50.008;10.596;2023-04-03T00:54:58;2.70;99.90
11047;DHT22;5576;50.008;10.596;2023-04-03T00:57:25;3.90;99.90
11047;DHT22;5576;50.008;10.596;2023-04-03T00:59:56;7.80;99.90
11047;DHT22;5576;50.008;10.596;2023-04-03T01:02:23;1.30;99.90
11047;DHT22;5576;50.008;10.596;2023-04-03T01:04:50;3.60;99.90
11047;DHT22;5576;50.008;10.596;2023-04-03T01:07:20;5.60;99.90
11047;DHT22;5576;50.008;10.596;2023-04-03T01:09:48;3.40;99.90
11047;DHT22;5576;50.008;10.596;2023-04-03T01:12:22;3.50;99.90
11047;DHT22;5576;50.008;10.596;2023-04-03T01:14:51;5.80;99.90
11047;DHT22;5576;50.008;10.596;2023-04-03T01:17:36;3.70;99.90
11047;DHT22;5576;50.008;10.596;2023-04-03T01:25:41;7.70;99.90
11047;DHT22;5576;50.008;10.596;2023-04-03T01:28:12;7.10;99.90
11047;DHT22;5576;50.008;10.596;2023-04-03T01:33:45;2.80;99.90
11047;DHT22;5576;50.008;10.596;2023-04-03T01:36:19;4.00;99.90
11047;DHT22;5576;50.008;10.596;2023-04-03T01:38:46;4.10;99.90
11047;DHT22;5576;50.008;10.596;2023-04-03T01:41:12;4.10;99.90
11047;DHT22;5576;50.008;10.596;2023-04-03T01:43:39;5.60;99.90
11047;DHT22;5576;50.008;10.596;2023-04-03T01:46:05;4.30;99.90
11047;DHT22;5576;50.008;10.596;2023-04-03T01:50:57;3.20;99.90
11047;DHT22;5576;50.008;10.596;2023-04-03T01:53:23;4.00;99.90
11047;DHT22;5576;50.008;10.596;2023-04-03T01:55:49;4.00;99.90
11047;DHT22;5576;50.008;10.596;2023-04-03T01:58:15;0.50;99.90
11047;DHT22;5576;50.008;10.596;2023-04-03T02:00:41;4.00;99.90
11047;DHT22;5576;50.008;10.596;2023-04-03T02:03:07;4.00;99.90
11047;DHT22;5576;50.008;10.596;2023-04-03T02:05:33;4.20;99.90
11047;DHT22;5576;50.008;10.596;2023-04-03T02:07:59;4.20;99.90
11047;DHT22;5576;50.008;10.596;2023-04-03T02:10:25;4.20;99.90
11047;DHT22;5576;50.008;10.596;2023-04-03T02:12:51;4.10;99.90
11047;DHT22;5576;50.008;10.596;2023-04-03T02:15:18;4.20;99.90
11047;DHT22;5576;50.008;10.596;2023-04-03T02:17:44;4.10;99.90
11047;DHT22;5576;50.008;10.596;2023-04-03T02:20:10;4.20;99.90
11047;DHT22;5576;50.008;10.596;2023-04-03T02:22:36;4.20;99.90
11047;DHT22;5576;50.008;10.596;2023-04-03T02:25:02;4.30;99.90
11047;DHT22;5576;50.008;10.596;2023-04-03T02:27:28;4.40;99.90
11047;DHT22;5576;50.008;10.596;2023-04-03T02:29:54;4.40;99.90
11047;DHT22;5576;50.008;10.596;2023-04-03T02:32:19;4.40;99.90
11047;DHT22;5576;50.008;10.596;2023-04-03T02:34:46;4.20;99.90
11047;DHT22;5576;50.008;10.596;2023-04-03T02:37:13;2.70;99.90
11047;DHT22;5576;50.008;10.596;2023-04-03T02:39:39;1.10;99.90
11047;DHT22;5576;50.008;10.596;2023-04-03T02:42:05;4.20;99.90
11047;DHT22;5576;50.008;10.596;2023-04-03T02:44:31;3.50;99.90
11047;DHT22;5576;50.008;10.596;2023-04-03T02:46:57;4.20;99.90
11047;DHT22;5576;50.008;10.596;2023-04-03T02:49:23;4.20;99.90
11047;DHT22;5576;50.008;10.596;2023-04-03T02:51:48;4.30;99.90
11047;DHT22;5576;50.008;10.596;2023-04-03T02:54:14;4.30;99.90
11047;DHT22;5576;50.008;10.596;2023-04-03T02:56:45;7.00;99.90
11047;DHT22;5576;50.008;10.596;2023-04-03T02:59:11;4.30;99.90
11047;DHT22;5576;50.008;10.596;2023-04-03T03:01:38;4.30;99.90
11047;DHT22;5576;50.008;10.596;2023-04-03T03:04:04;4.30;99.90
11047;DHT22;5576;50.008;10.596;2023-04-03T03:06:30;7.40;99.90
11047;DHT22;5576;50.008;10.596;2023-04-03T03:08:56;4.20;99.90
11047;DHT22;5576;50.008;10.596;2023-04-03T03:11:22;4.20;99.90
11047;DHT22;5576;50.008;10.596;2023-04-03T03:13:47;4.10;99.90
11047;DHT22;5576;50.008;10.596;2023-04-03T03:16:13;4.10;99.90
11047;DHT22;5576;50.008;10.596;2023-04-03T03:18:39;8.10;99.90
11047;DHT22;5576;50.008;10.596;2023-04-03T03:21:05;7.30;99.90
11047;DHT22;5576;50.008;10.596;2023-04-03T03:23:31;4.10;99.90
11047;DHT22;5576;50.008;10.596;2023-04-03T03:25:59;6.60;99.90
11047;DHT22;5576;50.008;10.596;2023-04-03T03:28:26;4.00;99.90
11047;DHT22;5576;50.008;10.596;2023-04-03T03:30:52;5.90;99.90
11047;DHT22;5576;50.008;10.596;2023-04-03T03:33:18;4.00;99.90
11047;DHT22;5576;50.008;10.596;2023-04-03T03:35:45;4.10;99.90
11047;DHT22;5576;50.008;10.596;2023-04-03T03:38:11;3.90;99.90
11047;DHT22;5576;50.008;10.596;2023-04-03T03:40:37;2.20;99.90
11047;DHT22;5576;50.008;10.596;2023-04-03T03:43:03;3.90;99.90
11047;DHT22;5576;50.008;10.596;2023-04-03T03:45:29;3.80;99.90
11047;DHT22;5576;50.008;10.596;2023-04-03T03:47:56;3.70;99.90
11047;DHT22;5576;50.008;10.596;2023-04-03T03:50:22;3.70;99.90
11047;DHT22;5576;50.008;10.596;2023-04-03T03:52:48;3.70;99.90
11047;DHT22;5576;50.008;10.596;2023-04-03T03:55:14;3.60;99.90
11047;DHT22;5576;50.008;10.596;2023-04-03T03:57:40;3.60;99.90
11047;DHT22;5576;50.008;10.596;2023-04-03T04:00:07;3.60;99.90
11047;DHT22;5576;50.008;10.596;2023-04-03T04:02:42;3.80;99.90
11047;DHT22;5576;50.008;10.596;2023-04-03T04:05:12;3.60;99.90
11047;DHT22;5576;50.008;10.596;2023-04-03T04:07:38;3.60;99.90
11047;DHT22;5576;50.008;10.596;2023-04-03T04:10:04;6.50;99.90
11047;DHT22;5576;50.008;10.596;2023-04-03T04:12:31;3.70;99.90
11047;DHT22;5576;50.008;10.596;2023-04-03T04:14:57;3.70;99.90
11047;DHT22;5576;50.008;10.596;2023-04-03T04:17:23;3.70;99.90
11047;DHT22;5576;50.008;10.596;2023-04-03T04:19:49;0.10;99.90
11047;DHT22;5576;50.008;10.596;2023-04-03T04:22:15;3.70;99.90
11047;DHT22;5576;50.008;10.596;2023-04-03T04:24:42;3.60;99.90
11047;DHT22;5576;50.008;10.596;2023-04-03T04:27:08;3.60;99.90
11047;DHT22;5576;50.008;10.596;2023-04-03T04:29:35;3.70;99.90
11047;DHT22;5576;50.008;10.596;2023-04-03T04:32:04;3.70;99.90
11047;DHT22;5576;50.008;10.596;2023-04-03T04:34:30;3.50;99.90
11047;DHT22;5576;50.008;10.596;2023-04-03T04:36:57;3.40;99.90
11047;DHT22;5576;50.008;10.596;2023-04-03T04:39:23;3.30;99.90
11047;DHT22;5576;50.008;10.596;2023-04-03T04:41:49;3.40;99.90
11047;DHT22;5576;50.008;10.596;2023-04-03T04:44:15;2.20;99.90
11047;DHT22;5576;50.008;10.596;2023-04-03T04:46:41;3.50;99.90
11047;DHT22;5576;50.008;10.596;2023-04-03T04:49:08;3.60;99.90
11047;DHT22;5576;50.008;10.596;2023-04-03T04:51:34;3.60;99.90
11047;DHT22;5576;50.008;10.596;2023-04-03T04:54:00;7.00;99.90
11047;DHT22;5576;50.008;10.596;2023-04-03T04:56:26;3.70;99.90
11047;DHT22;5576;50.008;10.596;2023-04-03T04:58:53;3.50;99.90
11047;DHT22;5576;50.008;10.596;2023-04-03T05:01:20;3.50;99.90
11047;DHT22;5576;50.008;10.596;2023-04-03T05:03:54;7.10;99.90
11047;DHT22;5576;50.008;10.596;2023-04-03T05:06:21;3.40;99.90
11047;DHT22;5576;50.008;10.596;2023-04-03T05:08:46;0.90;99.90
11047;DHT22;5576;50.008;10.596;2023-04-03T05:11:12;7.00;99.90
11047;DHT22;5576;50.008;10.596;2023-04-03T05:13:41;1.40;99.90
11047;DHT22;5576;50.008;10.596;2023-04-03T05:16:07;3.10;99.90
11047;DHT22;5576;50.008;10.596;2023-04-03T05:18:33;3.10;99.90
11047;DHT22;5576;50.008;10.596;2023-04-03T05:21:04;3.10;99.90
11047;DHT22;5576;50.008;10.596;2023-04-03T05:23:30;3.20;99.90
11047;DHT22;5576;50.008;10.596;2023-04-03T05:25:58;3.20;99.90
11047;DHT22;5576;50.008;10.596;2023-04-03T05:28:24;3.40;99.90
11047;DHT22;5576;50.008;10.596;2023-04-03T05:30:55;3.10;99.90
11047;DHT22;5576;50.008;10.596;2023-04-03T05:33:22;3.10;99.90
11047;DHT22;5576;50.008;10.596;2023-04-03T05:35:51;4.60;99.90
11047;DHT22;5576;50.008;10.596;2023-04-03T05:38:23;3.00;99.90
11047;DHT22;5576;50.008;10.596;2023-04-03T05:40:50;3.00;99.90
11047;DHT22;5576;50.008;10.596;2023-04-03T05:43:15;3.10;99.90
11047;DHT22;5576;50.008;10.596;2023-04-03T05:45:43;1.00;99.90
11047;DHT22;5576;50.008;10.596;2023-04-03T05:48:09;3.30;99.90
11047;DHT22;5576;50.008;10.596;2023-04-03T05:50:35;3.30;99.90
11047;DHT22;5576;50.008;10.596;2023-04-03T05:53:02;2.90;99.90
11047;DHT22;5576;50.008;10.596;2023-04-03T05:55:31;3.10;99.90
11047;DHT22;5576;50.008;10.596;2023-04-03T05:57:57;-0.10;99.90
11047;DHT22;5576;50.008;10.596;2023-04-03T06:00:23;3.00;99.90
11047;DHT22;5576;50.008;10.596;2023-04-03T06:02:58;3.00;99.90
11047;DHT22;5576;50.008;10.596;2023-04-03T06:05:25;2.80;99.90
11047;DHT22;5576;50.008;10.596;2023-04-03T06:07:50;3.60;99.90
11047;DHT22;5576;50.008;10.596;2023-04-03T06:10:16;2.90;99.90
11047;DHT22;5576;50.008;10.596;2023-04-03T06:12:44;2.90;99.90
11047;DHT22;5576;50.008;10.596;2023-04-03T06:15:10;2.90;99.90
11047;DHT22;5576;50.008;10.596;2023-04-03T06:17:39;3.00;99.90
11047;DHT22;5576;50.008;10.596;2023-04-03T06:20:06;2.90;99.90
11047;DHT22;5576;50.008;10.596;2023-04-03T06:22:33;4.30;99.90
11047;DHT22;5576;50.008;10.596;2023-04-03T06:25:01;1.00;99.90
11047;DHT22;5576;50.008;10.596;2023-04-03T06:27:27;3.00;99.90
11047;DHT22;5576;50.008;10.596;2023-04-03T06:29:53;3.20;99.90
11047;DHT22;5576;50.008;10.596;2023-04-03T06:32:18;3.20;99.90
11047;DHT22;5576;50.008;10.596;2023-04-03T06:34:44;3.20;99.90
11047;DHT22;5576;50.008;10.596;2023-04-03T06:37:16;3.10;99.90
11047;DHT22;5576;50.008;10.596;2023-04-03T06:39:43;3.20;99.90
11047;DHT22;5576;50.008;10.596;2023-04-03T06:42:09;3.10;99.90
11047;DHT22;5576;50.008;10.596;2023-04-03T06:44:44;4.20;99.90
11047;DHT22;5576;50.008;10.596;2023-04-03T06:47:12;6.60;99.90
11047;DHT22;5576;50.008;10.596;2023-04-03T06:49:38;5.80;99.90
11047;DHT22;5576;50.008;10.596;2023-04-03T06:52:05;3.40;99.90
11047;DHT22;5576;50.008;10.596;2023-04-03T06:54:31;3.50;99.90
11047;DHT22;5576;50.008;10.596;2023-04-03T06:56:57;7.00;99.90
11047;DHT22;5576;50.008;10.596;2023-04-03T06:59:23;3.40;99.90
11047;DHT22;5576;50.008;10.596;2023-04-03T07:01:50;3.30;99.90
11047;DHT22;5576;50.008;10.596;2023-04-03T07:04:16;3.20;99.90
11047;DHT22;5576;50.008;10.596;2023-04-03T07:06:42;3.40;99.90
11047;DHT22;5576;50.008;10.596;2023-04-03T07:09:09;3.30;99.90
11047;DHT22;5576;50.008;10.596;2023-04-03T07:11:36;3.30;99.90
11047;DHT22;5576;50.008;10.596;2023-04-03T07:14:02;3.20;99.90
11047;DHT22;5576;50.008;10.596;2023-04-03T07:16:28;3.10;99.90
11047;DHT22;5576;50.008;10.596;2023-04-03T07:18:56;3.20;99.90
11047;DHT22;5576;50.008;10.596;2023-04-03T07:21:23;3.10;99.90
11047;DHT22;5576;50.008;10.596;2023-04-03T07:23:48;7.00;99.90
11047;DHT22;5576;50.008;10.596;2023-04-03T07:26:15;3.20;99.90
11047;DHT22;5576;50.008;10.596;2023-04-03T07:28:41;3.30;99.90
11047;DHT22;5576;50.008;10.596;2023-04-03T07:31:09;3.40;99.90
11047;DHT22;5576;50.008;10.596;2023-04-03T07:33:37;4.30;99.90
11047;DHT22;5576;50.008;10.596;2023-04-03T07:36:04;3.50;99.90
11047;DHT22;5576;50.008;10.596;2023-04-03T07:38:33;3.80;99.90
11047;DHT22;5576;50.008;10.596;2023-04-03T07:40:59;4.20;99.90
11047;DHT22;5576;50.008;10.596;2023-04-03T07:43:25;3.70;99.90
11047;DHT22;5576;50.008;10.596;2023-04-03T07:45:52;3.80;99.90
11047;DHT22;5576;50.008;10.596;2023-04-03T07:48:22;3.70;99.90
11047;DHT22;5576;50.008;10.596;2023-04-03T07:50:48;3.60;99.90
11047;DHT22;5576;50.008;10.596;2023-04-03T07:53:15;3.70;99.90
11047;DHT22;5576;50.008;10.596;2023-04-03T07:55:41;3.90;99.90
11047;DHT22;5576;50.008;10.596;2023-04-03T07:58:10;4.00;99.90
11047;DHT22;5576;50.008;10.596;2023-04-03T08:00:36;3.90;99.90
11047;DHT22;5576;50.008;10.596;2023-04-03T08:03:02;4.00;99.90
11047;DHT22;5576;50.008;10.596;2023-04-03T08:05:28;4.60;99.90
11047;DHT22;5576;50.008;10.596;2023-04-03T08:07:54;1.20;99.90
11047;DHT22;5576;50.008;10.596;2023-04-03T08:10:20;1.50;99.90
11047;DHT22;5576;50.008;10.596;2023-04-03T08:12:47;4.40;99.90
11047;DHT22;5576;50.008;10.596;2023-04-03T08:17:38;4.70;99.90
11047;DHT22;5576;50.008;10.596;2023-04-03T08:20:05;4.70;99.90
11047;DHT22;5576;50.008;10.596;2023-04-03T08:22:32;5.80;99.90
11047;DHT22;5576;50.008;10.596;2023-04-03T08:24:59;4.60;99.90
11047;DHT22;5576;50.008;10.596;2023-04-03T08:27:25;4.70;99.90
11047;DHT22;5576;50.008;10.596;2023-04-03T08:29:52;4.60;99.90
11047;DHT22;5576;50.008;10.596;2023-04-03T08:32:17;3.40;99.90
11047;DHT22;5576;50.008;10.596;2023-04-03T08:34:43;4.60;99.90
11047;DHT22;5576;50.008;10.596;2023-04-03T08:37:09;4.50;99.90
11047;DHT22;5576;50.008;10.596;2023-04-03T08:39:35;8.10;99.90
11047;DHT22;5576;50.008;10.596;2023-04-03T08:42:10;5.50;99.90
11047;DHT22;5576;50.008;10.596;2023-04-03T08:45:12;4.60;99.90
11047;DHT22;5576;50.008;10.596;2023-04-03T08:47:58;7.60;99.90
11047;DHT22;5576;50.008;10.596;2023-04-03T08:50:38;4.70;99.90
11047;DHT22;5576;50.008;10.596;2023-04-03T08:53:06;4.70;99.90
11047;DHT22;5576;50.008;10.596;2023-04-03T08:55:47;4.70;99.90
11047;DHT22;5576;50.008;10.596;2023-04-03T08:58:30;4.70;99.90
11047;DHT22;5576;50.008;10.596;2023-04-03T09:01:01;4.60;99.90
11047;DHT22;5576;50.008;10.596;2023-04-03T09:03:32;4.70;99.90
11047;DHT22;5576;50.008;10.596;2023-04-03T09:16:55;5.80;99.90
11047;DHT22;5576;50.008;10.596;2023-04-03T09:22:32;9.10;99.90
11047;DHT22;5576;50.008;10.596;2023-04-03T09:27:35;6.00;99.90
11047;DHT22;5576;50.008;10.596;2023-04-03T09:30:01;8.60;99.90
11047;DHT22;5576;50.008;10.596;2023-04-03T09:32:31;6.20;99.90
11047;DHT22;5576;50.008;10.596;2023-04-03T09:37:42;6.30;99.90
11047;DHT22;5576;50.008;10.596;2023-04-03T09:42:56;6.60;99.90
11047;DHT22;5576;50.008;10.596;2023-04-03T09:50:57;7.00;99.90
11047;DHT22;5576;50.008;10.596;2023-04-03T09:56:04;7.30;99.90
11047;DHT22;5576;50.008;10.596;2023-04-03T09:58:45;7.50;99.90
11047;DHT22;5576;50.008;10.596;2023-04-03T10:01:32;7.60;99.90
11047;DHT22;5576;50.008;10.596;2023-04-03T10:04:08;7.60;99.90
11047;DHT22;5576;50.008;10.596;2023-04-03T10:06:38;7.20;99.90
11047;DHT22;5576;50.008;10.596;2023-04-03T10:09:25;6.70;99.90
11047;DHT22;5576;50.008;10.596;2023-04-03T10:12:02;6.50;99.90
11047;DHT22;5576;50.008;10.596;2023-04-03T10:14:32;8.80;99.90
11047;DHT22;5576;50.008;10.596;2023-04-03T10:17:03;6.60;99.90
11047;DHT22;5576;50.008;10.596;2023-04-03T10:19:41;10.00;99.90
11047;DHT22;5576;50.008;10.596;2023-04-03T10:22:21;7.20;99.90
11047;DHT22;5576;50.008;10.596;2023-04-03T10:27:51;8.10;99.90
11047;DHT22;5576;50.008;10.596;2023-04-03T10:30:21;7.30;99.90
11047;DHT22;5576;50.008;10.596;2023-04-03T10:33:06;10.00;99.90
11047;DHT22;5576;50.008;10.596;2023-04-03T10:35:42;7.10;99.90
11047;DHT22;5576;50.008;10.596;2023-04-03T10:38:20;7.70;99.90
11047;DHT22;5576;50.008;10.596;2023-04-03T10:46:15;7.80;99.90
11047;DHT22;5576;50.008;10.596;2023-04-03T10:48:53;7.30;99.90
11047;DHT22;5576;50.008;10.596;2023-04-03T10:51:24;7.30;99.90
11047;DHT22;5576;50.008;10.596;2023-04-03T10:54:12;3.80;99.90
11047;DHT22;5576;50.008;10.596;2023-04-03T10:56:57;10.70;99.90
11047;DHT22;5576;50.008;10.596;2023-04-03T10:59:47;8.00;99.90
11047;DHT22;5576;50.008;10.596;2023-04-03T11:02:23;8.10;99.90
11047;DHT22;5576;50.008;10.596;2023-04-03T11:04:55;8.10;99.90
11047;DHT22;5576;50.008;10.596;2023-04-03T11:07:26;7.60;99.90
11047;DHT22;5576;50.008;10.596;2023-04-03T11:09:58;5.70;99.90
11047;DHT22;5576;50.008;10.596;2023-04-03T11:12:33;5.80;99.90
11047;DHT22;5576;50.008;10.596;2023-04-03T11:15:02;7.70;99.90
11047;DHT22;5576;50.008;10.596;2023-04-03T11:17:37;7.70;99.90
11047;DHT22;5576;50.008;10.596;2023-04-03T11:22:58;7.30;99.90
11047;DHT22;5576;50.008;10.596;2023-04-03T11:25:26;7.10;99.90
11047;DHT22;5576;50.008;10.596;2023-04-03T11:27:57;7.10;99.90
11047;DHT22;5576;50.008;10.596;2023-04-03T11:35:45;7.80;99.90
11047;DHT22;5576;50.008;10.596;2023-04-03T11:38:19;8.20;99.90
11047;DHT22;5576;50.008;10.596;2023-04-03T11:40:48;8.10;99.90
11047;DHT22;5576;50.008;10.596;2023-04-03T11:43:25;8.20;99.90
11047;DHT22;5576;50.008;10.596;2023-04-03T11:50:59;8.20;99.90
11047;DHT22;5576;50.008;10.596;2023-04-03T11:53:41;8.10;99.90
11047;DHT22;5576;50.008;10.596;2023-04-03T12:01:56;7.60;99.90
11047;DHT22;5576;50.008;10.596;2023-04-03T12:04:25;7.90;99.90
11047;DHT22;5576;50.008;10.596;2023-04-03T12:06:58;8.30;99.90
11047;DHT22;5576;50.008;10.596;2023-04-03T12:11:59;7.30;99.90
11047;DHT22;5576;50.008;10.596;2023-04-03T12:14:28;8.30;99.90
11047;DHT22;5576;50.008;10.596;2023-04-03T12:16:55;10.20;99.90
11047;DHT22;5576;50.008;10.596;2023-04-03T12:19:39;12.80;99.90
11047;DHT22;5576;50.008;10.596;2023-04-03T12:22:11;12.70;99.90
11047;DHT22;5576;50.008;10.596;2023-04-03T12:24:40;8.90;99.90
11047;DHT22;5576;50.008;10.596;2023-04-03T12:27:28;8.60;99.90
11047;DHT22;5576;50.008;10.596;2023-04-03T12:38:41;6.00;99.90
11047;DHT22;5576;50.008;10.596;2023-04-03T12:47:00;8.60;99.90
11047;DHT22;5576;50.008;10.596;2023-04-03T12:49:43;8.90;99.90
11047;DHT22;5576;50.008;10.596;2023-04-03T12:52:33;9.00;99.90
11047;DHT22;5576;50.008;10.596;2023-04-03T12:55:02;9.10;99.90
11047;DHT22;5576;50.008;10.596;2023-04-03T12:57:30;13.30;99.90
11047;DHT22;5576;50.008;10.596;2023-04-03T12:59:58;9.30;99.90
11047;DHT22;5576;50.008;10.596;2023-04-03T13:02:28;5.40;99.90
11047;DHT22;5576;50.008;10.596;2023-04-03T13:04:58;11.00;99.90
11047;DHT22;5576;50.008;10.596;2023-04-03T13:07:32;9.10;99.90
11047;DHT22;5576;50.008;10.596;2023-04-03T13:10:13;11.90;99.90
11047;DHT22;5576;50.008;10.596;2023-04-03T13:12:57;9.20;99.90
11047;DHT22;5576;50.008;10.596;2023-04-03T13:15:30;9.40;99.90
11047;DHT22;5576;50.008;10.596;2023-04-03T13:17:56;11.20;99.90
11047;DHT22;5576;50.008;10.596;2023-04-03T13:20:27;8.40;99.90
11047;DHT22;5576;50.008;10.596;2023-04-03T13:23:04;6.40;99.90
11047;DHT22;5576;50.008;10.596;2023-04-03T13:25:33;10.00;99.90
11047;DHT22;5576;50.008;10.596;2023-04-03T13:28:01;9.80;99.90
11047;DHT22;5576;50.008;10.596;2023-04-03T13:30:31;7.30;99.90
11047;DHT22;5576;50.008;10.596;2023-04-03T13:33:01;9.40;99.90
11047;DHT22;5576;50.008;10.596;2023-04-03T13:35:32;9.50;99.90
11047;DHT22;5576;50.008;10.596;2023-04-03T13:38:05;9.60;99.90
11047;DHT22;5576;50.008;10.596;2023-04-03T13:40:31;12.80;99.90
11047;DHT22;5576;50.008;10.596;2023-04-03T13:43:16;9.90;99.90
11047;DHT22;5576;50.008;10.596;2023-04-03T13:48:41;9.50;99.90
11047;DHT22;5576;50.008;10.596;2023-04-03T13:53:48;9.40;99.90
11047;DHT22;5576;50.008;10.596;2023-04-03T13:56:23;9.50;99.90
11047;DHT22;5576;50.008;10.596;2023-04-03T13:58:58;9.70;99.90
11047;DHT22;5576;50.008;10.596;2023-04-03T14:01:25;9.80;99.90
11047;DHT22;5576;50.008;10.596;2023-04-03T14:03:56;10.10;99.90
11047;DHT22;5576;50.008;10.596;2023-04-03T14:06:23;10.30;99.90
11047;DHT22;5576;50.008;10.596;2023-04-03T14:08:49;10.10;99.70
11047;DHT22;5576;50.008;10.596;2023-04-03T14:11:18;10.00;99.90
11047;DHT22;5576;50.008;10.596;2023-04-03T14:13:45;10.00;99.90
11047;DHT22;5576;50.008;10.596;2023-04-03T14:16:17;9.90;99.90
11047;DHT22;5576;50.008;10.596;2023-04-03T14:18:44;10.00;99.80
11047;DHT22;5576;50.008;10.596;2023-04-03T14:21:12;8.50;99.90
11047;DHT22;5576;50.008;10.596;2023-04-03T14:23:39;6.70;98.10
11047;DHT22;5576;50.008;10.596;2023-04-03T14:26:11;10.10;99.90
11047;DHT22;5576;50.008;10.596;2023-04-03T14:28:37;9.80;99.90
11047;DHT22;5576;50.008;10.596;2023-04-03T14:31:05;9.90;99.90
11047;DHT22;5576;50.008;10.596;2023-04-03T14:33:32;12.70;99.90
11047;DHT22;5576;50.008;10.596;2023-04-03T14:36:01;12.10;99.90
11047;DHT22;5576;50.008;10.596;2023-04-03T14:38:30;9.70;99.90
11047;DHT22;5576;50.008;10.596;2023-04-03T14:40:57;9.70;99.90
11047;DHT22;5576;50.008;10.596;2023-04-03T14:43:23;9.70;98.30
11047;DHT22;5576;50.008;10.596;2023-04-03T14:45:50;9.80;98.70
11047;DHT22;5576;50.008;10.596;2023-04-03T14:48:21;10.00;98.30
11047;DHT22;5576;50.008;10.596;2023-04-03T14:50:48;12.60;99.10
11047;DHT22;5576;50.008;10.596;2023-04-03T14:53:15;10.10;98.70
11047;DHT22;5576;50.008;10.596;2023-04-03T14:55:45;10.00;99.20
11047;DHT22;5576;50.008;10.596;2023-04-03T14:58:13;10.00;99.90
11047;DHT22;5576;50.008;10.596;2023-04-03T15:00:40;13.10;99.90
11047;DHT22;5576;50.008;10.596;2023-04-03T15:03:06;9.90;99.90
11047;DHT22;5576;50.008;10.596;2023-04-03T15:05:32;9.90;99.90
11047;DHT22;5576;50.008;10.596;2023-04-03T15:07:58;9.70;99.90
11047;DHT22;5576;50.008;10.596;2023-04-03T15:10:29;9.60;99.90
11047;DHT22;5576;50.008;10.596;2023-04-03T15:12:55;9.40;99.90
11047;DHT22;5576;50.008;10.596;2023-04-03T15:15:23;8.00;99.90
11047;DHT22;5576;50.008;10.596;2023-04-03T15:17:53;9.00;99.90
11047;DHT22;5576;50.008;10.596;2023-04-03T15:20:23;9.20;99.90
11047;DHT22;5576;50.008;10.596;2023-04-03T15:22:49;9.30;99.90
11047;DHT22;5576;50.008;10.596;2023-04-03T15:25:15;9.40;99.90
11047;DHT22;5576;50.008;10.596;2023-04-03T15:27:41;12.60;99.90
11047;DHT22;5576;50.008;10.596;2023-04-03T15:30:13;9.70;99.90
11047;DHT22;5576;50.008;10.596;2023-04-03T15:32:40;9.60;99.90
11047;DHT22;5576;50.008;10.596;2023-04-03T15:35:06;9.70;99.90
11047;DHT22;5576;50.008;10.596;2023-04-03T15:37:32;12.40;99.90
11047;DHT22;5576;50.008;10.596;2023-04-03T15:39:57;11.90;99.90
11047;DHT22;5576;50.008;10.596;2023-04-03T15:42:23;6.20;99.90
11047;DHT22;5576;50.008;10.596;2023-04-03T15:44:49;9.20;99.90
11047;DHT22;5576;50.008;10.596;2023-04-03T15:47:15;5.40;99.90
11047;DHT22;5576;50.008;10.596;2023-04-03T15:49:41;8.20;99.90
11047;DHT22;5576;50.008;10.596;2023-04-03T15:52:07;8.00;99.90
11047;DHT22;5576;50.008;10.596;2023-04-03T15:54:32;8.10;99.90
11047;DHT22;5576;50.008;10.596;2023-04-03T15:56:58;8.30;99.90
11047;DHT22;5576;50.008;10.596;2023-04-03T15:59:24;8.60;99.90
11047;DHT22;5576;50.008;10.596;2023-04-03T16:01:50;8.70;99.90
11047;DHT22;5576;50.008;10.596;2023-04-03T16:04:16;11.40;99.90
11047;DHT22;5576;50.008;10.596;2023-04-03T16:06:42;7.10;99.90
11047;DHT22;5576;50.008;10.596;2023-04-03T16:09:09;8.50;99.90
11047;DHT22;5576;50.008;10.596;2023-04-03T16:11:35;8.50;99.90
11047;DHT22;5576;50.008;10.596;2023-04-03T16:14:02;9.00;99.90
11047;DHT22;5576;50.008;10.596;2023-04-03T16:16:29;9.40;99.90
11047;DHT22;5576;50.008;10.596;2023-04-03T16:18:56;9.70;99.90
11047;DHT22;5576;50.008;10.596;2023-04-03T16:21:22;9.40;99.90
11047;DHT22;5576;50.008;10.596;2023-04-03T16:23:48;8.90;99.90
11047;DHT22;5576;50.008;10.596;2023-04-03T16:26:15;8.70;99.90
11047;DHT22;5576;50.008;10.596;2023-04-03T16:28:40;8.80;99.90
11047;DHT22;5576;50.008;10.596;2023-04-03T16:31:07;10.30;99.90
11047;DHT22;5576;50.008;10.596;2023-04-03T16:33:33;8.40;99.90
11047;DHT22;5576;50.008;10.596;2023-04-03T16:35:59;6.40;99.90
11047;DHT22;5576;50.008;10.596;2023-04-03T16:38:25;9.60;99.90
11047;DHT22;5576;50.008;10.596;2023-04-03T16:40:51;9.50;99.90
11047;DHT22;5576;50.008;10.596;2023-04-03T16:43:22;13.40;99.90
11047;DHT22;5576;50.008;10.596;2023-04-03T16:45:48;9.80;99.90
11047;DHT22;5576;50.008;10.596;2023-04-03T16:48:14;11.80;99.90
11047;DHT22;5576;50.008;10.596;2023-04-03T16:50:39;9.40;99.90
11047;DHT22;5576;50.008;10.596;2023-04-03T16:53:05;8.60;99.90
11047;DHT22;5576;50.008;10.596;2023-04-03T16:55:35;8.10;99.90
11047;DHT22;5576;50.008;10.596;2023-04-03T16:58:01;7.60;99.90
11047;DHT22;5576;50.008;10.596;2023-04-03T17:00:30;7.50;99.90
11047;DHT22;5576;50.008;10.596;2023-04-03T17:02:55;6.00;99.90
11047;DHT22;5576;50.008;10.596;2023-04-03T17:05:21;9.90;99.90
11047;DHT22;5576;50.008;10.596;2023-04-03T17:07:47;7.10;99.90
11047;DHT22;5576;50.008;10.596;2023-04-03T17:10:13;6.20;99.90
11047;DHT22;5576;50.008;10.596;2023-04-03T17:12:39;6.80;99.90
11047;DHT22;5576;50.008;10.596;2023-04-03T17:15:06;9.30;99.90
11047;DHT22;5576;50.008;10.596;2023-04-03T17:17:32;6.40;99.90
11047;DHT22;5576;50.008;10.596;2023-04-03T17:19:58;6.10;99.90
11047;DHT22;5576;50.008;10.596;2023-04-03T17:22:23;6.00;99.90
11047;DHT22;5576;50.008;10.596;2023-04-03T17:24:49;6.00;99.90
11047;DHT22;5576;50.008;10.596;2023-04-03T17:27:15;6.20;99.90
11047;DHT22;5576;50.008;10.596;2023-04-03T17:29:41;6.20;99.90